Time;durP1;ratioP1;P1;durP2;ratioP2;P2;SDS_P1;SDS_P2;PMS_P1;PMS_P2;Temp;Humidity;BMP_temperature;BMP_pressure;BME280_temperature;BME280_humidity;BME280_pressure;Samples;Min_cycle;Max_cycle;Signal;HPM_P1;HPM_P2
2024/01/08 00:01:26;;;;;;;13.30;9.98;;;2.00;99.90;;;1.84;75.67;102964.69;5016449;28;20049;-70
2024/01/08 00:03:55;;;;;;;10.80;9.23;;;2.00;99.90;;;2.03;75.46;102965.06;5016047;28;20053;-69
2024/01/08 00:06:23;;;;;;;11.43;10.23;;;2.00;99.90;;;2.04;75.53;102972.06;5033571;28;20038;-70
2024/01/08 00:08:52;;;;;;;13.07;10.03;;;2.10;99.90;;;2.13;75.40;102963.94;5033919;28;20050;-70
2024/01/08 00:11:20;;;;;;;13.17;10.13;;;2.10;99.90;;;2.13;75.52;102977.88;5033956;28;20049;-70
2024/01/08 00:13:49;;;;;;;11.43;9.10;;;2.10;99.90;;;2.18;75.07;102971.25;5016122;28;20411;-70
2024/01/08 00:16:21;;;;;;;11.77;10.17;;;2.20;99.90;;;2.16;75.22;102964.13;5033720;28;20047;-70
2024/01/08 00:18:49;;;;;;;10.03;9.00;;;2.20;99.90;;;2.26;75.03;102971.72;5034051;28;20065;-69
2024/01/08 00:21:18;;;;;;;13.47;10.47;;;2.30;99.90;;;2.05;74.68;102976.50;5033938;28;20099;-70
2024/01/08 00:23:46;;;;;;;12.13;9.43;;;2.20;99.90;;;2.21;74.75;102971.44;5033904;28;20064;-69
2024/01/08 00:26:14;;;;;;;11.63;10.00;;;2.20;99.90;;;2.24;74.68;102968.13;5015941;28;20072;-69
2024/01/08 00:28:43;;;;;;;11.50;9.90;;;2.20;99.90;;;2.11;74.71;102952.50;5033486;28;20052;-69
2024/01/08 00:31:11;;;;;;;12.07;10.57;;;2.20;99.90;;;2.12;74.76;102970.84;5033460;28;20042;-69
2024/01/08 00:33:41;;;;;;;12.27;10.53;;;2.10;99.90;;;2.05;74.47;102955.63;5033490;28;20406;-70
2024/01/08 00:36:10;;;;;;;12.00;9.52;;;2.10;99.90;;;1.88;74.49;102937.97;5015781;28;20437;-70
2024/01/08 00:38:38;;;;;;;13.60;10.20;;;2.10;99.90;;;2.11;74.65;102971.66;5033259;28;20037;-70
2024/01/08 00:41:07;;;;;;;12.93;9.40;;;2.10;99.90;;;1.99;74.83;102963.06;5033280;28;20049;-69
2024/01/08 00:43:35;;;;;;;11.80;9.73;;;2.00;99.90;;;2.05;74.47;102958.25;5033090;28;20045;-69
2024/01/08 00:46:04;;;;;;;11.27;9.63;;;2.10;99.90;;;2.15;74.02;102959.72;5015726;28;20069;-69
2024/01/08 00:48:32;;;;;;;10.63;9.53;;;2.10;99.90;;;2.05;73.90;102955.63;5033015;28;20055;-70
2024/01/08 00:51:02;;;;;;;10.40;9.40;;;2.10;99.90;;;2.05;73.84;102950.41;5015027;28;20061;-69
2024/01/08 00:53:31;;;;;;;10.10;9.10;;;2.10;99.90;;;1.14;74.10;102783.69;5032929;28;20053;-70
2024/01/08 00:55:59;;;;;;;12.87;9.70;;;2.10;99.90;;;2.08;73.82;102954.91;5032657;28;20148;-70
2024/01/08 00:58:30;;;;;;;11.67;9.27;;;2.10;99.90;;;2.05;73.65;102954.72;5033297;28;20055;-70
2024/01/08 01:00:58;;;;;;;11.68;9.93;;;2.10;99.90;;;2.03;73.52;102964.16;5032890;28;20042;-69
2024/01/08 01:03:27;;;;;;;10.17;9.13;;;2.10;99.90;;;2.04;73.83;102968.56;5033010;28;20398;-69
2024/01/08 01:05:57;;;;;;;13.67;9.53;;;2.00;99.90;;;1.99;73.78;102965.69;5015230;28;20486;-69
2024/01/08 01:08:27;;;;;;;10.90;9.83;;;2.10;99.90;;;1.93;73.51;102953.94;5015382;28;20414;-70
2024/01/08 01:10:56;;;;;;;12.27;9.48;;;2.00;99.90;;;1.95;73.34;102955.84;5032893;28;20049;-70
2024/01/08 01:13:25;;;;;;;13.53;9.20;;;2.00;99.90;;;2.03;73.40;102969.38;5033529;28;20049;-70
2024/01/08 01:15:54;;;;;;;10.23;8.75;;;2.00;99.90;;;1.87;73.07;102962.28;5032772;28;20060;-69
2024/01/08 01:18:22;;;;;;;10.17;8.83;;;1.90;99.90;;;1.93;72.71;102964.38;5032809;28;20505;-69
2024/01/08 01:20:51;;;;;;;11.63;9.53;;;1.90;99.90;;;1.72;73.38;102966.53;5032731;28;20076;-69
2024/01/08 01:23:19;;;;;;;11.40;10.07;;;1.80;99.90;;;1.89;73.24;102970.19;5032466;28;20227;-69
2024/01/08 01:25:49;;;;;;;10.03;8.97;;;1.80;99.90;;;1.83;72.97;102962.88;5032511;28;20042;-70
2024/01/08 01:28:17;;;;;;;16.65;9.35;;;1.90;99.90;;;2.02;73.23;102980.59;5032523;28;20051;-69
2024/01/08 01:30:46;;;;;;;11.10;9.17;;;1.90;99.90;;;2.07;72.73;102972.25;5032498;28;20053;-69
2024/01/08 01:33:14;;;;;;;20.87;9.20;;;2.10;99.90;;;1.78;72.76;102970.41;5032261;28;20045;-70
2024/01/08 01:35:43;;;;;;;10.97;9.43;;;1.90;99.90;;;1.57;72.68;102986.34;5032380;28;20472;-70
2024/01/08 01:38:11;;;;;;;12.33;9.83;;;1.70;99.90;;;1.46;73.35;102987.38;5032712;28;20088;-70
2024/01/08 01:40:39;;;;;;;14.90;9.53;;;1.50;99.90;;;0.92;73.22;102911.66;5032098;28;20140;-69
2024/01/08 01:43:22;;;;;;;11.50;9.70;;;1.50;99.90;;;1.41;73.53;102979.28;5031953;28;20041;-69
2024/01/08 01:45:53;;;;;;;13.20;10.43;;;1.50;99.90;;;0.97;74.30;102948.44;5014384;28;20100;-70
2024/01/08 01:48:23;;;;;;;11.37;10.17;;;1.30;99.90;;;1.52;74.33;103003.41;5031801;28;20060;-69
2024/01/08 01:50:52;;;;;;;12.98;10.65;;;1.50;99.90;;;1.41;74.10;102994.00;5032085;28;20045;-70
2024/01/08 01:53:21;;;;;;;10.97;9.97;;;1.50;99.90;;;1.61;74.04;102991.88;5032037;28;20048;-69
2024/01/08 01:55:50;;;;;;;11.30;9.93;;;1.60;99.90;;;1.64;73.21;102996.41;5031929;28;20056;-69
2024/01/08 01:58:19;;;;;;;11.80;10.63;;;1.60;99.90;;;1.70;72.78;102997.69;5031739;28;20042;-69
2024/01/08 02:00:49;;;;;;;10.77;9.67;;;1.70;99.90;;;1.56;72.71;103002.81;5031987;28;20551;-69
2024/01/08 02:03:18;;;;;;;11.20;10.07;;;1.60;99.90;;;1.58;72.55;103014.25;5031727;28;20038;-69
2024/01/08 02:05:47;;;;;;;12.63;10.05;;;1.60;99.90;;;1.61;72.60;102997.09;5031649;28;20045;-70
2024/01/08 02:08:15;;;;;;;11.23;9.80;;;1.60;99.90;;;1.48;72.31;103004.00;5013410;28;20056;-69
2024/01/08 02:10:44;;;;;;;13.53;10.13;;;1.50;99.90;;;1.57;72.08;103007.22;5031793;28;20049;-70
2024/01/08 02:13:13;;;;;;;11.07;9.50;;;1.60;99.90;;;1.25;70.82;102985.94;5031539;28;20173;-70
2024/01/08 02:15:41;;;;;;;15.67;10.40;;;1.40;99.90;;;1.35;71.19;102998.81;5031541;28;20056;-70
2024/01/08 02:18:11;;;;;;;12.47;10.10;;;1.40;99.90;;;1.33;70.83;103003.91;5031330;28;20053;-69
2024/01/08 02:20:40;;;;;;;10.57;8.88;;;1.40;99.90;;;1.44;70.51;102999.41;5031611;28;20402;-69
2024/01/08 02:23:09;;;;;;;12.37;10.30;;;1.40;99.90;;;0.87;69.57;102985.97;5031318;28;20371;-69
2024/01/08 02:25:38;;;;;;;11.13;10.00;;;1.20;99.90;;;1.05;70.31;102994.13;5031591;28;20056;-69
2024/01/08 02:28:07;;;;;;;11.93;9.80;;;1.10;99.90;;;1.13;69.52;102995.53;5031262;28;20099;-69
2024/01/08 02:30:35;;;;;;;10.60;9.60;;;1.20;99.90;;;1.10;69.79;102992.75;5031514;28;20136;-69
2024/01/08 02:33:04;;;;;;;10.70;9.57;;;1.20;99.90;;;1.23;69.32;102987.53;5031236;28;20149;-69
2024/01/08 02:35:33;;;;;;;15.17;9.63;;;1.30;99.90;;;1.14;69.27;102985.25;5031201;28;20152;-70
2024/01/08 02:38:01;;;;;;;11.57;9.97;;;1.20;99.90;;;1.09;69.18;102999.66;5031155;28;20129;-69
2024/01/08 02:40:32;;;;;;;11.77;9.27;;;1.10;99.90;;;1.13;68.90;103008.56;5031573;28;20053;-69
2024/01/08 02:43:00;;;;;;;12.13;10.90;;;1.20;99.90;;;1.05;69.38;103004.53;5031214;28;20140;-69
2024/01/08 02:45:28;;;;;;;13.33;10.23;;;1.10;99.90;;;0.62;69.66;102970.34;5031449;28;20045;-69
2024/01/08 02:47:57;;;;;;;11.47;10.37;;;1.00;99.90;;;0.95;70.05;102991.72;5031457;28;20099;-69
2024/01/08 02:50:26;;;;;;;11.73;10.23;;;1.00;99.90;;;1.05;70.01;103013.25;5030900;28;20111;-69
2024/01/08 02:52:54;;;;;;;14.37;10.67;;;1.10;99.90;;;0.96;70.32;102999.63;5030827;28;20073;-69
2024/01/08 02:55:23;;;;;;;13.50;11.20;;;1.00;99.90;;;0.69;70.29;103009.06;5030726;28;20069;-69
2024/01/08 02:57:53;;;;;;;12.77;10.47;;;0.80;99.90;;;0.75;70.96;103003.38;5013262;28;20470;-69
2024/01/08 03:00:21;;;;;;;11.32;10.02;;;0.80;99.90;;;0.10;70.37;102896.38;5030798;28;20049;-69
2024/01/08 03:02:50;;;;;;;13.50;11.27;;;0.80;99.90;;;0.78;70.52;103027.91;5030828;28;20042;-69
2024/01/08 03:05:18;;;;;;;12.17;11.03;;;0.80;99.90;;;0.98;70.49;103012.75;5030886;28;20109;-69
2024/01/08 03:07:47;;;;;;;13.20;11.00;;;1.00;99.90;;;1.09;70.11;103016.97;5030776;28;20648;-69
2024/01/08 03:10:17;;;;;;;;;;;1.10;99.90;;;1.05;69.86;103022.78;5031175;28;20120;-69
2024/01/08 03:12:46;;;;;;;11.97;10.73;;;1.10;99.90;;;1.07;69.45;103018.56;5030756;28;19986;-69
2024/01/08 03:15:15;;;;;;;11.60;10.43;;;1.20;99.90;;;0.88;69.68;102999.09;5013055;28;20057;-68
2024/01/08 03:17:44;;;;;;;12.13;10.13;;;1.10;99.90;;;1.14;69.57;103023.44;5012670;28;20148;-69
2024/01/08 03:20:13;;;;;;;13.67;10.87;;;1.20;99.90;;;0.85;69.34;103017.09;5012218;28;20049;-69
2024/01/08 03:22:41;;;;;;;12.83;10.07;;;1.00;99.90;;;1.00;69.74;103045.03;5012785;28;20099;-68
2024/01/08 03:25:10;;;;;;;13.27;10.20;;;1.10;99.90;;;0.93;69.29;103018.53;5030713;28;20037;-69
2024/01/08 03:27:38;;;;;;;13.40;10.30;;;1.00;99.90;;;0.93;69.52;103017.63;5030465;28;20544;-68
2024/01/08 03:30:08;;;;;;;15.43;11.53;;;1.00;99.90;;;0.98;69.48;103028.38;5013153;28;20490;-68
2024/01/08 03:32:38;;;;;;;12.50;10.52;;;1.00;99.90;;;1.03;69.53;103024.41;5030639;28;20063;-68
2024/01/08 03:35:07;;;;;;;12.68;10.63;;;1.00;99.90;;;1.02;69.03;103035.59;5013102;28;20049;-69
2024/01/08 03:37:36;;;;;;;11.53;10.13;;;1.10;99.90;;;1.07;69.27;103026.38;5030778;28;20409;-70
2024/01/08 03:40:06;;;;;;;14.47;10.17;;;1.10;99.90;;;1.05;69.25;103030.59;5030541;28;20045;-69
2024/01/08 03:42:35;;;;;;;12.65;10.90;;;1.10;99.90;;;1.09;69.02;103032.59;5013097;28;20056;-68
2024/01/08 03:45:04;;;;;;;13.30;10.87;;;1.10;99.90;;;1.04;69.13;103036.63;5012974;28;20254;-68
2024/01/08 03:47:32;;;;;;;12.43;10.63;;;1.10;99.90;;;1.09;69.36;103035.22;5030421;28;20073;-68
2024/01/08 03:50:02;;;;;;;12.67;9.63;;;1.20;99.90;;;0.98;68.77;103039.72;5030103;28;20046;-69
2024/01/08 03:52:31;;;;;;;11.52;9.55;;;1.10;99.90;;;1.02;68.97;103036.53;5030592;28;20041;-69
2024/01/08 03:54:59;;;;;;;14.00;11.07;;;1.10;99.90;;;1.02;69.37;103043.41;5030029;28;20041;-69
2024/01/08 03:57:27;;;;;;;14.97;10.77;;;1.10;99.90;;;1.12;69.17;103043.25;5030438;28;20049;-69
2024/01/08 03:59:56;;;;;;;13.60;10.37;;;1.10;99.90;;;0.53;69.75;103047.81;5012642;28;20065;-69
2024/01/08 04:02:24;;;;;;;10.97;9.83;;;0.80;99.90;;;0.85;70.28;103055.31;5030833;28;20045;-70
2024/01/08 04:04:53;;;;;;;13.23;11.00;;;0.80;99.90;;;0.90;69.88;103048.69;5012912;28;20050;-69
2024/01/08 04:07:23;;;;;;;13.87;10.87;;;0.90;99.90;;;0.98;70.20;103050.13;5030357;28;20128;-69
2024/01/08 04:09:51;;;;;;;11.93;10.73;;;1.00;99.90;;;0.99;69.94;103045.84;5012988;28;20714;-69
2024/01/08 04:12:19;;;;;;;12.47;11.03;;;1.00;99.90;;;0.97;69.89;103073.47;5030826;28;20132;-69
2024/01/08 04:14:48;;;;;;;12.47;11.17;;;1.00;99.90;;;1.10;69.46;103073.53;5030515;28;20050;-69
2024/01/08 04:17:16;;;;;;;12.27;10.50;;;1.10;99.90;;;1.04;69.39;103042.75;5029991;28;20041;-70
2024/01/08 04:19:45;;;;;;;12.43;10.63;;;1.10;99.90;;;0.90;69.36;103031.38;5030577;28;20045;-69
2024/01/08 04:22:13;;;;;;;11.63;10.43;;;1.00;99.90;;;0.79;69.74;103049.66;5030333;28;20042;-70
2024/01/08 04:24:43;;;;;;;14.30;11.80;;;0.90;99.90;;;0.83;70.29;103060.38;5012650;28;20042;-69
2024/01/08 04:27:11;;;;;;;15.07;10.95;;;0.90;99.90;;;0.71;70.38;103045.63;5030816;28;20042;-69
2024/01/08 04:29:40;;;;;;;13.97;11.53;;;0.80;99.90;;;0.79;70.69;103053.16;5030509;28;20041;-69
2024/01/08 04:32:09;;;;;;;13.50;10.43;;;0.80;99.90;;;0.88;70.74;103059.00;5016240;28;20041;-70
2024/01/08 04:34:37;;;;;;;15.20;10.93;;;0.90;99.90;;;0.15;70.56;102929.72;5033701;28;20045;-69
2024/01/08 04:37:06;;;;;;;15.37;10.57;;;0.90;99.90;;;0.85;70.72;103064.00;5033754;28;20128;-69
2024/01/08 04:39:35;;;;;;;13.97;11.00;;;0.90;99.90;;;0.80;70.68;103091.44;5034003;28;20100;-69
2024/01/08 04:42:05;;;;;;;13.73;11.50;;;0.90;99.90;;;0.80;71.31;103064.47;5033726;28;20071;-69
2024/01/08 04:44:33;;;;;;;15.65;11.27;;;0.80;99.90;;;0.65;71.28;103030.47;5033558;28;20128;-69
2024/01/08 04:47:02;;;;;;;15.63;11.27;;;0.80;99.90;;;0.86;71.32;103063.22;5033895;28;20065;-69
2024/01/08 04:49:31;;;;;;;14.37;11.30;;;0.90;99.90;;;0.85;71.14;103055.31;5033464;28;20052;-69
2024/01/08 04:51:59;;;;;;;15.20;12.17;;;0.90;99.90;;;0.86;71.13;103051.88;5015674;28;20054;-69
2024/01/08 04:54:28;;;;;;;12.60;10.63;;;0.90;99.90;;;0.96;71.32;103063.84;5033405;28;20445;-69
2024/01/08 04:56:56;;;;;;;12.50;11.30;;;0.90;99.90;;;0.99;71.18;103059.75;5033422;28;20103;-69
2024/01/08 04:59:26;;;;;;;12.50;10.80;;;1.00;99.90;;;0.60;71.28;102987.56;5033305;28;20052;-69
2024/01/08 05:01:54;;;;;;;14.45;10.63;;;1.00;99.90;;;0.90;70.90;103056.50;5033527;28;20438;-68
2024/01/08 05:04:23;;;;;;;14.07;10.83;;;1.00;99.90;;;0.93;70.91;103062.81;5033137;28;20052;-69
2024/01/08 05:06:52;;;;;;;15.30;12.03;;;1.00;99.90;;;0.80;71.37;103068.00;5033797;28;20053;-69
2024/01/08 05:09:20;;;;;;;12.70;11.17;;;0.80;99.90;;;0.86;71.68;103049.28;5033226;28;20477;-70
2024/01/08 05:11:48;;;;;;;18.20;11.07;;;0.80;99.90;;;0.94;71.36;103058.53;5033399;28;20049;-69
2024/01/08 05:14:17;;;;;;;15.20;10.97;;;0.90;99.90;;;0.95;71.21;103043.81;5032967;28;20053;-69
2024/01/08 05:16:46;;;;;;;17.33;12.30;;;1.00;99.90;;;0.77;71.22;103013.06;5033510;28;20045;-69
2024/01/08 05:19:15;;;;;;;19.55;11.85;;;1.00;99.90;;;0.96;71.52;103041.31;5033315;28;20049;-69
2024/01/08 05:21:44;;;;;;;19.03;12.00;;;1.00;99.90;;;0.90;71.33;103020.03;5033004;28;20064;-70
2024/01/08 05:24:13;;;;;;;15.20;11.63;;;1.00;99.90;;;0.92;71.76;103049.69;5032837;28;20052;-69
2024/01/08 05:26:41;;;;;;;18.23;12.63;;;0.90;99.90;;;1.09;71.53;103043.94;5033400;28;20563;-70
2024/01/08 05:29:09;;;;;;;21.87;12.00;;;1.10;99.90;;;1.01;71.40;103018.19;5033353;28;20045;-69
2024/01/08 05:31:38;;;;;;;19.03;12.17;;;1.20;99.90;;;1.23;71.31;103047.50;5032993;28;20117;-69
2024/01/08 05:34:07;;;;;;;14.73;12.00;;;1.30;99.90;;;1.19;71.18;103037.66;5015168;28;20048;-69
2024/01/08 05:36:36;;;;;;;25.27;13.55;;;1.20;99.90;;;1.18;71.21;103028.03;5033200;28;20049;-69
2024/01/08 05:39:04;;;;;;;17.23;12.50;;;1.20;99.90;;;0.86;71.04;103033.66;5032717;28;20042;-70
2024/01/08 05:41:34;;;;;;;15.60;11.60;;;1.00;99.90;;;0.18;71.70;102885.69;5032186;28;20462;-69
2024/01/08 05:44:02;;;;;;;16.73;11.93;;;1.00;99.90;;;1.08;71.39;103030.81;5014892;28;20871;-69
2024/01/08 05:46:31;;;;;;;15.33;12.37;;;1.10;99.90;;;0.98;71.50;103030.97;5033007;28;20128;-69
2024/01/08 05:49:00;;;;;;;17.70;11.83;;;1.00;99.90;;;0.25;71.77;102906.16;5032445;28;20053;-69
2024/01/08 05:51:30;;;;;;;13.93;11.53;;;1.10;99.90;;;0.99;72.04;103027.59;5032400;28;20038;-69
2024/01/08 05:53:59;;;;;;;14.35;11.20;;;1.00;99.90;;;0.93;72.06;103028.97;5032374;28;20053;-69
2024/01/08 05:56:27;;;;;;;16.43;13.10;;;1.00;99.90;;;0.85;72.33;103024.03;5032175;28;20052;-70
2024/01/08 05:58:56;;;;;;;13.27;11.13;;;0.90;99.90;;;0.89;72.41;103034.75;5032202;28;20124;-69
2024/01/08 06:01:24;;;;;;;15.27;11.83;;;1.00;99.90;;;0.87;72.72;103036.34;5032676;28;20041;-69
2024/01/08 06:03:53;;;;;;;14.67;12.97;;;0.90;99.90;;;0.83;72.97;103031.72;5032160;28;20049;-70
2024/01/08 06:06:21;;;;;;;16.70;12.47;;;0.90;99.90;;;1.03;73.01;103034.81;5014463;28;20136;-68
2024/01/08 06:08:51;;;;;;;14.50;12.07;;;1.00;99.90;;;1.09;72.67;103036.13;5032059;28;20046;-68
2024/01/08 06:11:20;;;;;;;15.35;11.88;;;1.10;99.90;;;1.17;73.04;103032.34;5032238;28;20061;-69
2024/01/08 06:13:48;;;;;;;18.80;13.60;;;1.20;99.90;;;1.20;73.21;103042.09;5031894;28;20045;-69
2024/01/08 06:16:17;;;;;;;14.73;12.77;;;1.30;99.90;;;1.20;73.35;103036.88;5032051;28;20074;-69
2024/01/08 06:18:45;;;;;;;19.30;13.67;;;1.30;99.90;;;1.17;73.13;103037.56;5014093;28;20116;-69
2024/01/08 06:21:14;;;;;;;16.30;12.90;;;1.20;99.90;;;1.16;73.71;103034.84;5031843;28;20606;-69
2024/01/08 06:23:42;;;;;;;19.07;13.13;;;1.20;99.90;;;1.17;73.72;103042.78;5031716;28;20092;-69
2024/01/08 06:26:12;;;;;;;16.63;13.23;;;1.20;99.90;;;1.24;73.83;103033.69;5031564;28;20130;-70
2024/01/08 06:28:41;;;;;;;16.80;13.40;;;1.20;99.90;;;1.22;74.08;103043.09;5031979;28;20115;-69
2024/01/08 06:31:09;;;;;;;18.17;13.07;;;1.20;99.90;;;1.32;74.02;103048.09;5031942;28;20479;-69
2024/01/08 06:33:39;;;;;;;;;;;1.30;99.90;;;1.39;74.22;103039.91;5032012;28;20045;-69
2024/01/08 06:36:08;;;;;;;16.40;13.57;;;1.40;99.90;;;1.37;74.24;103031.09;5031531;28;19971;-69
2024/01/08 06:38:36;;;;;;;19.03;13.33;;;1.40;99.90;;;1.37;74.16;103046.72;5031690;28;20049;-68
2024/01/08 06:41:05;;;;;;;17.97;14.13;;;1.40;99.90;;;1.24;74.34;103028.47;5031307;28;20053;-69
2024/01/08 06:43:35;;;;;;;15.60;13.30;;;1.40;99.90;;;1.39;74.51;103029.50;5031410;28;20056;-69
2024/01/08 06:46:04;;;;;;;15.52;13.65;;;1.40;99.90;;;1.34;74.66;103033.47;5031336;28;20064;-69
2024/01/08 06:48:32;;;;;;;16.70;12.97;;;1.40;99.90;;;1.45;74.46;103035.13;5031313;28;20072;-69
2024/01/08 06:51:01;;;;;;;16.60;13.57;;;1.50;99.90;;;1.56;74.60;103039.34;5031148;28;20045;-69
2024/01/08 06:53:30;;;;;;;15.63;13.53;;;1.50;99.90;;;1.66;74.49;103047.88;5031231;28;20081;-69
2024/01/08 06:55:58;;;;;;;17.53;14.27;;;1.60;99.90;;;1.68;74.43;103040.16;5031344;28;20176;-69
2024/01/08 06:58:27;;;;;;;20.57;13.40;;;1.70;99.90;;;1.53;74.34;103024.38;5031572;28;20045;-69
2024/01/08 07:00:57;;;;;;;19.90;14.40;;;1.70;99.90;;;1.67;74.24;103034.03;5031052;28;20099;-70
2024/01/08 07:03:25;;;;;;;16.83;13.43;;;1.70;99.90;;;1.57;74.72;103031.59;5031091;28;20046;-70
2024/01/08 07:05:54;;;;;;;17.13;13.37;;;1.60;99.90;;;1.65;74.70;103045.16;5013379;28;20061;-69
2024/01/08 07:08:22;;;;;;;21.13;13.93;;;1.70;99.90;;;1.63;74.47;103044.13;5031506;28;20128;-69
2024/01/08 07:10:51;;;;;;;17.07;13.80;;;1.70;99.90;;;1.51;74.95;103035.53;5013352;28;20053;-69
2024/01/08 07:13:20;;;;;;;18.07;13.57;;;1.60;99.90;;;1.66;74.98;103040.06;5030667;28;20049;-69
2024/01/08 07:15:50;;;;;;;15.73;13.20;;;1.70;99.90;;;1.67;74.96;103047.06;5030675;28;20049;-69
2024/01/08 07:18:19;;;;;;;19.33;14.50;;;1.70;99.90;;;1.73;75.07;103036.13;5013213;28;20061;-69
2024/01/08 07:20:48;;;;;;;20.13;13.80;;;1.80;99.90;;;1.76;74.71;103050.25;5030750;28;20100;-69
2024/01/08 07:23:17;;;;;;;18.20;14.63;;;1.80;99.90;;;1.66;74.94;103054.78;5030830;28;20046;-69
2024/01/08 07:25:45;;;;;;;16.70;14.40;;;1.80;99.90;;;1.68;74.92;103050.59;5013092;28;20052;-69
2024/01/08 07:28:16;;;;;;;17.20;14.27;;;1.70;99.90;;;1.60;74.89;103049.16;5030924;28;20042;-70
2024/01/08 07:30:45;;;;;;;18.20;14.50;;;1.70;99.90;;;1.73;74.95;103051.78;5030817;28;20103;-71
2024/01/08 07:33:13;;;;;;;18.20;13.90;;;1.80;99.90;;;1.73;74.87;103047.47;5030668;28;20041;-70
2024/01/08 07:35:43;;;;;;;20.03;14.43;;;1.80;99.90;;;1.82;74.83;103061.09;5030668;28;20042;-70
2024/01/08 07:38:11;;;;;;;19.42;14.18;;;1.80;99.90;;;1.82;74.47;103054.97;5030696;28;20072;-69
2024/01/08 07:40:40;;;;;;;17.90;14.30;;;1.90;99.90;;;1.81;74.53;103063.63;5013388;28;20061;-70
2024/01/08 07:43:08;;;;;;;16.70;14.03;;;1.80;99.90;;;1.82;74.54;103061.09;5030478;28;20379;-69
2024/01/08 07:45:37;;;;;;;19.80;14.23;;;1.90;99.90;;;1.77;74.28;103059.00;5013027;28;20044;-69
2024/01/08 07:48:07;;;;;;;16.87;14.17;;;1.90;99.90;;;1.89;74.49;103070.25;5030580;28;20055;-69
2024/01/08 07:50:36;;;;;;;17.33;13.37;;;1.90;99.90;;;1.75;74.32;103055.38;5030555;28;20045;-70
2024/01/08 07:53:07;;;;;;;16.05;12.75;;;1.80;99.90;;;1.77;73.93;103072.03;5030475;28;20041;-69
2024/01/08 07:55:36;;;;;;;20.70;13.30;;;1.80;99.90;;;1.73;73.96;103064.81;5031022;28;20526;-70
2024/01/08 07:58:05;;;;;;;16.73;12.80;;;1.80;99.90;;;1.86;73.75;103066.53;5030368;28;20045;-69
2024/01/08 08:00:33;;;;;;;14.60;12.43;;;1.80;99.90;;;1.77;73.23;103069.44;5030846;28;20049;-70
2024/01/08 08:03:01;;;;;;;15.57;12.40;;;1.80;99.90;;;1.70;73.08;103056.81;5030480;28;20041;-70
2024/01/08 08:05:30;;;;;;;19.03;13.50;;;1.80;99.90;;;1.79;73.33;103062.63;5031866;28;20232;-68
2024/01/08 08:07:59;;;;;;;16.50;12.10;;;1.80;99.90;;;1.84;73.13;103062.13;5034052;28;20045;-71
2024/01/08 08:10:29;;;;;;;14.23;12.37;;;1.80;99.90;;;1.81;72.80;103063.63;5034064;28;20083;-70
2024/01/08 08:12:57;;;;;;;17.85;12.70;;;1.80;99.90;;;1.82;72.06;103061.09;5034415;28;20367;-69
2024/01/08 08:15:26;;;;;;;14.97;12.27;;;1.80;99.90;;;1.77;72.39;103052.09;5034509;28;20049;-73
2024/01/08 08:17:54;;;;;;;15.77;12.17;;;1.80;99.90;;;1.81;71.80;103077.59;5034011;28;20054;-70
2024/01/08 08:20:23;;;;;;;15.77;12.43;;;1.80;99.90;;;1.98;71.25;103078.66;5034059;28;20655;-68
2024/01/08 08:22:52;;;;;;;13.50;11.33;;;1.90;99.90;;;1.90;71.21;103079.88;5033971;28;20092;-70
2024/01/08 08:25:21;;;;;;;15.87;11.20;;;1.90;99.90;;;1.89;70.94;103069.34;5033985;28;20076;-68
2024/01/08 08:27:51;;;;;;;17.77;11.57;;;1.90;99.90;;;1.97;70.91;103075.97;5034171;28;20049;-69
2024/01/08 08:30:22;;;;;;;15.52;12.20;;;1.90;99.90;;;1.99;70.71;103071.75;5033956;28;20041;-67
2024/01/08 08:32:51;;;;;;;14.63;12.00;;;2.00;99.90;;;2.12;70.71;103067.44;5034358;28;20116;-67
2024/01/08 08:35:19;;;;;;;14.50;11.60;;;2.10;99.90;;;2.19;70.74;103061.78;5033711;28;20136;-68
2024/01/08 08:37:48;;;;;;;13.17;11.60;;;2.20;99.90;;;2.26;70.33;103076.16;5016206;28;20148;-68
2024/01/08 08:40:22;;;;;;;14.57;11.27;;;2.20;99.90;;;2.38;70.94;103076.94;5033808;28;20047;-68
2024/01/08 08:42:53;;;;;;;13.32;11.50;;;2.30;99.90;;;2.40;70.61;103078.81;5034482;28;20095;-68
2024/01/08 08:45:22;;;;;;;15.13;11.60;;;2.40;99.90;;;2.31;70.44;103080.88;5033871;28;20135;-70
2024/01/08 08:47:51;;;;;;;14.13;11.30;;;2.40;99.90;;;2.22;70.52;103054.19;5033710;28;20041;-67
2024/01/08 08:50:19;;;;;;;14.73;11.87;;;2.40;99.90;;;2.32;70.73;103090.47;5033476;28;20042;-72
2024/01/08 08:52:49;;;;;;;14.87;11.17;;;2.40;99.90;;;2.34;71.18;103088.00;5033393;28;20034;-69
2024/01/08 08:55:18;;;;;;;13.70;10.87;;;2.40;99.90;;;2.36;71.00;103079.44;5033733;28;20056;-68
2024/01/08 08:57:46;;;;;;;12.73;10.80;;;2.40;99.90;;;2.43;71.08;103088.56;5033579;28;20045;-68
2024/01/08 09:00:18;;;;;;;12.30;10.57;;;2.40;99.90;;;2.47;70.76;103090.56;5033325;28;20045;-70
2024/01/08 09:02:52;;;;;;;13.27;10.93;;;2.50;99.90;;;2.53;70.79;103098.81;5033531;28;20049;-71
2024/01/08 09:05:21;;;;;;;14.73;10.97;;;2.50;99.90;;;2.33;70.26;103092.31;5033150;28;20410;-71
2024/01/08 09:08:04;;;;;;;16.27;11.67;;;2.40;99.90;;;2.31;70.38;103096.53;5033227;28;20084;-74
2024/01/08 09:10:33;;;;;;;12.05;9.90;;;2.40;99.90;;;2.24;70.33;103094.34;5033868;28;20051;-73
2024/01/08 09:13:02;;;;;;;12.73;10.03;;;2.30;99.90;;;2.23;70.41;103092.50;5033209;28;20049;-72
2024/01/08 09:15:32;;;;;;;12.93;10.10;;;2.30;99.90;;;2.25;70.31;103093.50;5033037;28;20041;-76
2024/01/08 09:18:00;;;;;;;10.75;9.52;;;2.30;99.90;;;2.20;69.66;103102.78;5032827;28;20057;-81
2024/01/08 09:20:30;;;;;;;12.60;9.57;;;2.20;99.90;;;2.12;69.31;103106.59;5033142;28;20121;-73
2024/01/08 09:22:59;;;;;;;11.33;9.47;;;2.20;99.90;;;2.10;68.56;103104.66;5032904;28;20084;-78
2024/01/08 09:25:27;;;;;;;11.07;9.83;;;2.10;99.90;;;2.17;68.11;103112.13;5032977;28;20075;-78
2024/01/08 09:27:56;;;;;;;10.63;8.63;;;2.20;99.90;;;2.19;68.25;103110.50;5032832;28;20483;-78
2024/01/08 09:30:24;;;;;;;10.90;9.27;;;2.20;99.90;;;2.15;67.84;103122.44;5015586;28;20045;-80
2024/01/08 09:32:54;;;;;;;10.40;9.00;;;2.20;99.90;;;1.91;67.57;103097.34;5032984;28;20437;-72
2024/01/08 09:35:23;;;;;;;12.95;9.45;;;2.10;99.90;;;1.83;67.25;103117.72;5015261;28;20140;-72
2024/01/08 09:37:51;;;;;;;10.57;9.47;;;2.00;99.90;;;1.85;67.08;103117.81;5032543;28;20046;-70
2024/01/08 09:40:20;;;;;;;11.43;9.17;;;1.90;99.90;;;1.96;67.27;103108.97;5014700;28;20056;-70
2024/01/08 09:42:55;;;;;;;10.07;9.07;;;2.00;99.90;;;1.83;67.22;103117.72;5015061;28;20107;-68
2024/01/08 09:45:26;;;;;;;11.30;9.33;;;1.90;99.90;;;1.59;67.22;103120.38;5032515;28;20045;-69
2024/01/08 09:47:56;;;;;;;10.53;9.63;;;1.80;99.90;;;1.70;68.10;103128.09;5032383;28;20485;-69
2024/01/08 09:50:27;;;;;;;;;;;1.70;99.90;;;1.62;67.77;103133.63;5015420;28;20056;-72
2024/01/08 09:52:56;;;;;;;10.27;8.90;;;1.70;99.90;;;1.55;68.20;103136.59;5031406;28;19947;-71
2024/01/08 09:55:25;;;;;;;12.07;10.30;;;1.60;99.90;;;1.67;68.85;103137.44;5032539;28;20048;-75
2024/01/08 09:57:54;;;;;;;11.90;9.43;;;1.70;99.90;;;1.47;68.57;103133.47;5032267;28;20479;-73
2024/01/08 10:00:23;;;;;;;11.13;10.03;;;1.60;99.90;;;1.67;68.64;103137.44;5032260;28;20045;-80
2024/01/08 10:02:58;;;;;;;10.63;9.53;;;1.70;99.90;;;1.67;68.47;103133.13;5032428;28;20042;-78
2024/01/08 10:05:28;;;;;;;10.90;9.80;;;1.70;99.90;;;1.65;68.94;103149.47;5032526;28;20045;-75
2024/01/08 10:08:00;;;;;;;10.73;9.60;;;1.60;99.90;;;1.61;68.57;103130.09;5032063;28;20054;-77
2024/01/08 10:10:30;;;;;;;11.57;9.40;;;1.70;99.90;;;1.70;68.65;103142.88;5032326;28;20054;-77
2024/01/08 10:12:59;;;;;;;11.07;9.83;;;1.70;99.90;;;1.67;68.37;103143.56;5031989;28;20041;-76
2024/01/08 10:15:28;;;;;;;11.13;9.90;;;1.70;99.90;;;1.77;68.69;103146.00;5014629;28;20067;-74
2024/01/08 10:18:01;;;;;;;10.60;9.52;;;1.70;99.90;;;1.93;68.84;103132.28;5031911;28;20057;-70
2024/01/08 10:20:31;;;;;;;11.60;10.27;;;1.90;99.90;;;2.00;68.37;103134.47;5031920;28;20045;-76
2024/01/08 10:23:08;;;;;;;11.67;10.17;;;2.00;99.90;;;1.94;68.49;103100.16;5014337;28;20136;-77